createdAt,value
2022-11-26T00:02:25.232Z,2.57
2022-11-26T00:04:53.182Z,2.53
2022-11-26T00:07:22.501Z,2.63
2022-11-26T00:09:49.902Z,2.73
2022-11-26T00:12:18.617Z,2.97
2022-11-26T00:14:47.256Z,2.87
2022-11-26T00:17:17.675Z,2.27
2022-11-26T00:19:45.170Z,3.07
2022-11-26T00:22:35.534Z,2.47
2022-11-26T00:25:02.027Z,3.17
2022-11-26T00:27:28.654Z,2.93
2022-11-26T00:29:55.460Z,2.40
2022-11-26T00:32:24.948Z,2.30
2022-11-26T00:34:52.068Z,3.00
2022-11-26T00:37:20.317Z,2.50
2022-11-26T00:39:47.451Z,3.00
2022-11-26T00:42:14.213Z,2.70
2022-11-26T00:44:40.753Z,2.70
2022-11-26T00:47:09.484Z,2.87
2022-11-26T00:49:36.500Z,2.17
2022-11-26T00:52:03.705Z,3.23
2022-11-26T00:54:30.150Z,2.53
2022-11-26T00:56:56.760Z,2.80
2022-11-26T00:59:23.318Z,2.30
2022-11-26T01:01:50.390Z,3.27
2022-11-26T01:04:16.997Z,3.07
2022-11-26T01:06:45.032Z,3.10
2022-11-26T01:09:20.533Z,2.93
2022-11-26T01:11:53.501Z,2.90
2022-11-26T01:14:21.713Z,2.83
2022-11-26T01:16:49.090Z,2.80
2022-11-26T01:19:16.633Z,2.63
2022-11-26T01:21:43.289Z,3.57
2022-11-26T01:24:09.767Z,2.93
2022-11-26T01:26:42.279Z,3.13
2022-11-26T01:29:19.046Z,2.70
2022-11-26T01:31:46.344Z,3.10
2022-11-26T01:34:13.208Z,2.87
2022-11-26T01:36:42.317Z,2.50
2022-11-26T01:39:17.958Z,3.00
2022-11-26T01:41:56.530Z,3.57
2022-11-26T01:44:29.258Z,2.67
2022-11-26T01:46:56.618Z,2.70
2022-11-26T01:49:26.632Z,2.87
2022-11-26T01:52:24.799Z,2.97
2022-11-26T01:54:53.213Z,2.57
2022-11-26T01:57:24.025Z,2.90
2022-11-26T01:59:54.016Z,3.17
2022-11-26T02:02:23.178Z,3.10
2022-11-26T02:05:18.044Z,2.73
2022-11-26T02:07:45.731Z,3.47
2022-11-26T02:10:13.664Z,2.67
2022-11-26T02:12:41.335Z,3.17
2022-11-26T02:15:08.958Z,3.20
2022-11-26T02:17:46.100Z,2.90
2022-11-26T02:20:24.494Z,2.33
2022-11-26T02:23:05.390Z,2.80
2022-11-26T02:26:01.244Z,3.10
2022-11-26T02:28:52.387Z,2.43
2022-11-26T02:31:44.619Z,2.73
2022-11-26T02:34:18.065Z,2.50
2022-11-26T02:36:58.132Z,2.63
2022-11-26T02:39:27.842Z,2.63
2022-11-26T02:42:00.599Z,2.77
2022-11-26T02:44:47.405Z,2.70
2022-11-26T02:47:18.561Z,3.03
2022-11-26T02:49:47.211Z,2.93
2022-11-26T02:52:15.950Z,2.47
2022-11-26T02:54:43.766Z,2.73
2022-11-26T02:57:14.338Z,2.43
2022-11-26T02:59:41.576Z,2.23
2022-11-26T03:02:39.959Z,3.17
2022-11-26T03:05:08.356Z,2.77
2022-11-26T03:07:36.482Z,2.90
2022-11-26T03:10:03.792Z,2.70
2022-11-26T03:12:30.322Z,2.53
2022-11-26T03:14:56.910Z,3.03
2022-11-26T03:17:23.348Z,2.80
2022-11-26T03:19:51.009Z,2.40
2022-11-26T03:22:17.831Z,2.53
2022-11-26T03:24:44.217Z,3.70
2022-11-26T03:27:10.674Z,3.23
2022-11-26T03:29:37.088Z,2.73
2022-11-26T03:32:03.720Z,2.60
2022-11-26T03:34:30.275Z,2.40
2022-11-26T03:36:56.702Z,3.00
2022-11-26T03:39:23.113Z,2.57
2022-11-26T03:41:49.575Z,3.20
2022-11-26T03:44:16.293Z,2.87
2022-11-26T03:46:42.738Z,2.70
2022-11-26T03:49:10.379Z,3.10
2022-11-26T03:51:36.937Z,2.90
2022-11-26T03:54:03.503Z,2.77
2022-11-26T03:56:29.892Z,2.60
2022-11-26T03:58:56.318Z,3.10
2022-11-26T04:01:22.868Z,3.00
2022-11-26T04:03:49.340Z,3.73
2022-11-26T04:06:15.826Z,3.20
2022-11-26T04:08:43.659Z,4.07
2022-11-26T04:11:10.173Z,2.97
2022-11-26T04:13:36.588Z,3.37
2022-11-26T04:16:03.165Z,3.20
2022-11-26T04:18:29.538Z,3.10
2022-11-26T04:20:56.001Z,2.73
2022-11-26T04:23:22.467Z,4.00
2022-11-26T04:25:48.858Z,2.60
2022-11-26T04:28:15.332Z,3.97
2022-11-26T04:30:42.902Z,3.60
2022-11-26T04:33:09.787Z,4.07
2022-11-26T04:35:37.192Z,3.53
2022-11-26T04:38:03.600Z,3.23
2022-11-26T04:40:30.075Z,3.30
2022-11-26T04:42:56.465Z,3.53
2022-11-26T04:45:22.956Z,3.03
2022-11-26T04:47:49.394Z,3.90
2022-11-26T04:50:15.834Z,2.83
2022-11-26T04:52:42.221Z,3.60
2022-11-26T04:55:09.177Z,3.53
2022-11-26T04:57:35.617Z,3.97
2022-11-26T05:00:02.063Z,3.97
2022-11-26T05:02:28.577Z,3.77
2022-11-26T05:04:54.990Z,4.40
2022-11-26T05:07:21.404Z,4.00
2022-11-26T05:09:47.822Z,4.43
2022-11-26T05:12:14.265Z,4.90
2022-11-26T05:14:40.935Z,3.83
2022-11-26T05:17:07.415Z,4.40
2022-11-26T05:19:34.215Z,4.67
2022-11-26T05:22:00.602Z,4.70
2022-11-26T05:24:26.994Z,5.17
2022-11-26T05:26:56.940Z,4.67
2022-11-26T05:29:24.281Z,4.70
2022-11-26T05:31:50.739Z,4.77
2022-11-26T05:34:17.521Z,5.27
2022-11-26T05:36:44.075Z,6.20
2022-11-26T05:39:10.465Z,5.70
2022-11-26T05:41:36.973Z,5.47
2022-11-26T05:44:03.518Z,5.17
2022-11-26T05:46:30.065Z,5.53
2022-11-26T05:48:56.426Z,5.47
2022-11-26T05:51:22.890Z,5.07
2022-11-26T05:53:49.313Z,4.43
2022-11-26T05:56:15.725Z,5.57
2022-11-26T05:58:43.020Z,5.47
2022-11-26T06:01:09.571Z,5.50
2022-11-26T06:03:37.083Z,6.33
2022-11-26T06:06:04.377Z,5.70
2022-11-26T06:08:30.837Z,5.93
2022-11-26T06:10:57.726Z,6.30
2022-11-26T06:13:24.276Z,6.50
2022-11-26T06:15:50.665Z,6.97
2022-11-26T06:18:17.496Z,5.57
2022-11-26T06:20:44.599Z,5.93
2022-11-26T06:23:11.073Z,5.87
2022-11-26T06:25:41.082Z,6.10
2022-11-26T06:28:07.587Z,6.13
2022-11-26T06:30:34.093Z,6.27
2022-11-26T06:33:00.556Z,6.37
2022-11-26T06:35:27.012Z,6.80
2022-11-26T06:37:53.532Z,6.93
2022-11-26T06:40:20.587Z,7.10
2022-11-26T06:42:51.142Z,6.60
2022-11-26T06:45:18.557Z,7.00
2022-11-26T06:47:49.336Z,7.03
2022-11-26T06:50:17.592Z,8.93
2022-11-26T06:52:43.997Z,7.63
2022-11-26T06:55:10.472Z,6.63
2022-11-26T06:57:37.038Z,7.43
2022-11-26T07:00:05.583Z,6.90
2022-11-26T07:02:32.110Z,7.50
2022-11-26T07:04:58.759Z,6.47
2022-11-26T07:07:25.261Z,6.87
2022-11-26T07:09:51.753Z,7.20
2022-11-26T07:12:18.332Z,7.73
2022-11-26T07:14:44.722Z,7.10
2022-11-26T07:17:11.141Z,7.53
2022-11-26T07:19:37.608Z,7.27
2022-11-26T07:22:04.025Z,6.67
2022-11-26T07:24:30.726Z,7.67
2022-11-26T07:26:57.238Z,8.17
2022-11-26T07:29:23.654Z,8.30
2022-11-26T07:31:50.132Z,8.77
2022-11-26T07:34:17.645Z,7.50
2022-11-26T07:36:45.165Z,9.57
2022-11-26T07:39:11.923Z,8.50
2022-11-26T07:41:38.706Z,6.97
2022-11-26T07:44:05.222Z,8.03
2022-11-26T07:46:31.786Z,8.80
2022-11-26T07:48:58.268Z,8.67
2022-11-26T07:51:27.334Z,8.90
2022-11-26T07:53:54.831Z,8.27
2022-11-26T07:56:21.785Z,7.63
2022-11-26T07:58:48.310Z,7.73
2022-11-26T08:01:21.334Z,7.37
2022-11-26T08:03:49.656Z,8.57
2022-11-26T08:06:18.557Z,7.97
2022-11-26T08:08:45.105Z,8.87
2022-11-26T08:11:20.687Z,8.80
2022-11-26T08:13:47.693Z,9.23
2022-11-26T08:16:15.253Z,8.73
2022-11-26T08:18:41.980Z,9.27
2022-11-26T08:21:08.696Z,8.53
2022-11-26T08:23:35.459Z,8.03
2022-11-26T08:26:22.637Z,7.83
2022-11-26T08:28:53.408Z,8.23
2022-11-26T08:31:20.337Z,7.97
2022-11-26T08:33:48.013Z,6.83
2022-11-26T08:36:14.512Z,7.97
2022-11-26T08:38:41.264Z,7.63
2022-11-26T08:41:10.812Z,7.23
2022-11-26T08:46:25.908Z,8.00
2022-11-26T08:48:55.306Z,7.70
2022-11-26T08:51:21.961Z,7.93
2022-11-26T08:53:48.355Z,8.57
2022-11-26T08:56:14.864Z,7.17
2022-11-26T08:58:44.192Z,7.37
2022-11-26T09:01:35.117Z,8.10
2022-11-26T09:04:03.200Z,7.60
2022-11-26T09:06:31.664Z,8.20
2022-11-26T09:09:15.305Z,7.23
2022-11-26T09:11:49.949Z,6.90
2022-11-26T09:14:19.764Z,7.50
2022-11-26T09:16:46.432Z,7.53
2022-11-26T09:19:14.393Z,7.43
2022-11-26T09:21:40.775Z,6.77
2022-11-26T09:24:07.404Z,7.47
2022-11-26T09:26:34.631Z,7.00
2022-11-26T09:29:01.878Z,7.57
2022-11-26T09:31:28.658Z,7.23
2022-11-26T09:33:56.772Z,7.47
2022-11-26T09:36:23.247Z,6.80
2022-11-26T09:38:53.499Z,7.47
2022-11-26T09:41:33.261Z,7.47
2022-11-26T09:44:19.894Z,7.37
2022-11-26T09:47:10.957Z,7.27
2022-11-26T09:49:51.700Z,8.00
2022-11-26T09:52:21.031Z,7.43
2022-11-26T09:54:53.290Z,7.37
2022-11-26T09:57:26.632Z,8.90
2022-11-26T09:59:55.445Z,7.17
2022-11-26T10:02:22.548Z,7.70
2022-11-26T10:04:49.023Z,6.90
2022-11-26T10:07:28.117Z,7.90
2022-11-26T10:09:57.650Z,6.77
2022-11-26T10:13:03.117Z,7.60
2022-11-26T10:15:38.562Z,7.07
2022-11-26T10:18:25.296Z,6.83
2022-11-26T10:21:01.449Z,7.33
2022-11-26T10:23:41.124Z,7.07
2022-11-26T10:26:15.704Z,6.97
2022-11-26T10:28:48.700Z,7.77
2022-11-26T10:31:27.187Z,7.67
2022-11-26T10:34:01.908Z,6.87
2022-11-26T10:36:50.915Z,7.37
2022-11-26T10:39:20.538Z,7.83
2022-11-26T10:41:48.178Z,8.07
2022-11-26T10:44:33.656Z,7.47
2022-11-26T10:47:27.815Z,7.87
2022-11-26T10:50:19.236Z,9.00
2022-11-26T10:52:52.207Z,8.97
2022-11-26T10:55:24.682Z,6.80
2022-11-26T10:58:03.142Z,8.33
2022-11-26T11:00:37.797Z,8.07
2022-11-26T11:03:38.560Z,8.20
2022-11-26T11:06:19.058Z,9.70
2022-11-26T11:08:50.955Z,9.27
2022-11-26T11:11:29.016Z,7.57
2022-11-26T11:13:56.757Z,9.07
2022-11-26T11:16:40.981Z,8.00
2022-11-26T11:19:22.482Z,8.17
2022-11-26T11:21:49.539Z,7.73
2022-11-26T11:24:21.000Z,8.43
2022-11-26T11:26:53.440Z,8.67
2022-11-26T11:29:32.990Z,7.93
2022-11-26T11:32:04.345Z,8.00
2022-11-26T11:34:40.955Z,8.10
2022-11-26T11:37:14.775Z,8.07
2022-11-26T11:39:42.245Z,7.30
2022-11-26T11:42:40.437Z,6.87
2022-11-26T11:45:40.360Z,6.90
2022-11-26T11:48:18.649Z,7.03
2022-11-26T11:50:58.199Z,6.77
2022-11-26T11:53:36.718Z,7.07
2022-11-26T11:56:19.021Z,6.47
2022-11-26T11:59:10.242Z,7.00
2022-11-26T12:01:53.664Z,5.90
2022-11-26T12:04:24.886Z,5.97
2022-11-26T12:06:58.804Z,6.30
2022-11-26T12:09:37.366Z,6.60
2022-11-26T12:12:17.013Z,6.17
2022-11-26T12:14:52.808Z,5.40
2022-11-26T12:17:35.494Z,6.73
2022-11-26T12:20:21.805Z,6.23
2022-11-26T12:23:29.359Z,6.20
2022-11-26T12:26:06.220Z,5.67
2022-11-26T12:28:41.145Z,5.50
2022-11-26T12:31:16.818Z,4.93
2022-11-26T12:33:49.530Z,5.53
2022-11-26T12:36:36.032Z,5.17
2022-11-26T12:39:06.368Z,5.43
2022-11-26T12:41:45.646Z,5.90
2022-11-26T12:44:19.267Z,5.77
2022-11-26T12:46:54.530Z,5.53
2022-11-26T12:49:31.687Z,5.13
2022-11-26T12:52:25.716Z,5.97
2022-11-26T12:55:30.475Z,5.40
2022-11-26T12:58:41.240Z,4.80
2022-11-26T13:01:11.148Z,5.03
2022-11-26T13:03:37.600Z,6.03
2022-11-26T13:06:14.392Z,5.13
2022-11-26T13:09:03.254Z,5.00
2022-11-26T13:11:44.352Z,5.60
2022-11-26T13:14:20.621Z,4.93
2022-11-26T13:16:58.682Z,4.53
2022-11-26T13:19:37.649Z,5.63
2022-11-26T13:22:25.849Z,5.60
2022-11-26T13:25:22.737Z,4.67
2022-11-26T13:28:18.363Z,4.53
2022-11-26T13:30:56.741Z,4.43
2022-11-26T13:33:41.767Z,5.00
2022-11-26T13:36:32.865Z,4.90
2022-11-26T13:39:23.521Z,4.17
2022-11-26T13:42:27.054Z,4.73
2022-11-26T13:45:02.668Z,4.47
2022-11-26T13:47:54.470Z,4.47
2022-11-26T13:50:27.404Z,4.67
2022-11-26T13:53:25.090Z,4.43
2022-11-26T13:56:00.595Z,4.83
2022-11-26T13:58:31.960Z,4.50
2022-11-26T14:01:26.582Z,4.30
2022-11-26T14:03:53.086Z,4.57
2022-11-26T14:06:19.624Z,4.80
2022-11-26T14:08:48.655Z,4.53
2022-11-26T14:11:40.156Z,4.33
2022-11-26T14:14:25.158Z,4.73
2022-11-26T14:17:00.972Z,4.77
2022-11-26T14:19:39.487Z,4.70
2022-11-26T14:22:08.435Z,4.80
2022-11-26T14:24:53.243Z,4.20
2022-11-26T14:27:31.486Z,4.60
2022-11-26T14:30:19.669Z,4.47
2022-11-26T14:33:03.358Z,4.20
2022-11-26T14:35:34.602Z,4.27
2022-11-26T14:38:03.839Z,4.30
2022-11-26T14:40:31.722Z,4.40
2022-11-26T14:43:19.741Z,4.10
2022-11-26T14:45:48.745Z,4.13
2022-11-26T14:48:24.539Z,4.00
2022-11-26T14:50:52.756Z,3.80
2022-11-26T14:53:20.785Z,4.10
2022-11-26T14:55:48.733Z,5.23
2022-11-26T14:58:26.287Z,4.87
2022-11-26T15:01:07.656Z,4.70
2022-11-26T15:03:34.269Z,4.23
2022-11-26T15:06:00.933Z,4.43
2022-11-26T15:08:27.609Z,5.47
2022-11-26T15:11:05.423Z,4.23
2022-11-26T15:13:37.679Z,4.43
2022-11-26T15:16:26.725Z,4.30
2022-11-26T15:18:54.748Z,5.23
2022-11-26T15:21:24.566Z,5.77
2022-11-26T15:23:52.453Z,4.30
2022-11-26T15:26:20.566Z,4.40
2022-11-26T15:28:47.175Z,3.90
2022-11-26T15:31:15.327Z,4.37
2022-11-26T15:33:43.227Z,4.17
2022-11-26T15:36:15.852Z,4.33
2022-11-26T15:39:06.507Z,4.93
2022-11-26T15:41:42.315Z,4.30
2022-11-26T15:44:25.007Z,4.87
2022-11-26T15:46:54.405Z,4.53
2022-11-26T15:49:37.898Z,3.30
2022-11-26T15:52:08.309Z,4.27
2022-11-26T15:55:04.400Z,4.03
2022-11-26T15:57:40.692Z,3.93
2022-11-26T16:00:20.929Z,4.17
2022-11-26T16:02:47.391Z,3.93
2022-11-26T16:05:28.871Z,3.37
2022-11-26T16:07:57.441Z,4.17
2022-11-26T16:10:27.554Z,3.67
2022-11-26T16:13:10.871Z,4.17
2022-11-26T16:15:46.206Z,4.43
2022-11-26T16:18:16.979Z,4.03
2022-11-26T16:20:45.000Z,3.40
2022-11-26T16:23:28.227Z,3.37
2022-11-26T16:26:16.115Z,3.97
2022-11-26T16:28:43.877Z,4.93
2022-11-26T16:31:10.913Z,4.77
2022-11-26T16:33:39.064Z,4.63
2022-11-26T16:36:15.550Z,4.00
2022-11-26T16:38:42.126Z,4.30
2022-11-26T16:41:13.294Z,4.10
2022-11-26T16:43:39.820Z,4.60
2022-11-26T16:46:13.027Z,3.50
2022-11-26T16:48:40.498Z,3.73
2022-11-26T16:51:06.917Z,3.93
2022-11-26T16:53:33.524Z,3.93
2022-11-26T16:56:00.348Z,3.90
2022-11-26T16:58:29.535Z,3.17
2022-11-26T17:00:56.727Z,3.90
2022-11-26T17:03:24.128Z,3.57
2022-11-26T17:05:53.845Z,3.90
2022-11-26T17:08:20.349Z,3.30
2022-11-26T17:10:47.647Z,3.80
2022-11-26T17:13:17.800Z,3.17
2022-11-26T17:15:44.915Z,4.37
2022-11-26T17:18:25.538Z,3.57
2022-11-26T17:20:53.563Z,4.00
2022-11-26T17:23:20.642Z,3.57
2022-11-26T17:25:51.920Z,3.67
2022-11-26T17:28:18.689Z,4.27
2022-11-26T17:30:45.529Z,3.63
2022-11-26T17:33:12.086Z,4.20
2022-11-26T17:35:38.809Z,3.70
2022-11-26T17:38:15.565Z,4.00
2022-11-26T17:40:42.556Z,4.13
2022-11-26T17:43:09.881Z,4.23
2022-11-26T17:45:36.761Z,3.83
2022-11-26T17:48:03.502Z,4.57
2022-11-26T17:50:30.811Z,3.93
2022-11-26T17:52:57.281Z,3.70
2022-11-26T17:55:25.742Z,4.47
2022-11-26T17:57:52.744Z,4.07
2022-11-26T18:00:25.288Z,4.20
2022-11-26T18:02:52.013Z,4.30
2022-11-26T18:05:18.563Z,3.80
2022-11-26T18:07:45.198Z,4.07
2022-11-26T18:10:16.448Z,3.60
2022-11-26T18:12:43.784Z,4.40
2022-11-26T18:15:18.686Z,4.00
2022-11-26T18:17:48.207Z,4.33
2022-11-26T18:20:15.877Z,4.63
2022-11-26T18:22:42.364Z,3.90
2022-11-26T18:25:08.820Z,4.40
2022-11-26T18:27:35.674Z,4.53
2022-11-26T18:30:03.151Z,4.67
2022-11-26T18:32:29.568Z,5.10
2022-11-26T18:34:55.949Z,3.90
2022-11-26T18:37:22.460Z,4.30
2022-11-26T18:39:48.812Z,4.47
2022-11-26T18:42:36.103Z,4.23
2022-11-26T18:45:01.699Z,4.00
2022-11-26T18:47:29.216Z,4.67
2022-11-26T18:49:55.654Z,3.87
2022-11-26T18:52:22.055Z,4.23
2022-11-26T18:54:48.542Z,4.20
2022-11-26T18:57:14.896Z,3.80
2022-11-26T18:59:41.556Z,4.37
2022-11-26T19:02:10.799Z,3.60
2022-11-26T19:04:38.291Z,4.60
2022-11-26T19:07:04.792Z,4.47
2022-11-26T19:09:31.188Z,4.40
2022-11-26T19:11:58.297Z,4.70
2022-11-26T19:14:24.706Z,4.20
2022-11-26T19:16:51.505Z,5.13
2022-11-26T19:19:19.463Z,5.47
2022-11-26T19:21:45.940Z,4.70
2022-11-26T19:24:12.817Z,4.43
2022-11-26T19:26:41.355Z,4.67
2022-11-26T19:29:09.628Z,4.70
2022-11-26T19:31:38.878Z,4.40
2022-11-26T19:34:08.897Z,5.13
2022-11-26T19:36:36.321Z,4.37
2022-11-26T19:39:04.232Z,4.47
2022-11-26T19:41:30.696Z,4.47
2022-11-26T19:44:00.270Z,5.43
2022-11-26T19:46:27.252Z,5.80
2022-11-26T19:48:54.216Z,5.47
2022-11-26T19:51:23.183Z,5.20
2022-11-26T19:53:52.358Z,5.10
2022-11-26T19:56:30.439Z,5.43
2022-11-26T19:58:58.566Z,5.60
2022-11-26T20:01:27.339Z,5.50
2022-11-26T20:03:54.087Z,6.20
2022-11-26T20:06:26.550Z,5.50
2022-11-26T20:08:53.710Z,5.67
2022-11-26T20:11:20.650Z,5.70
2022-11-26T20:13:48.647Z,5.70
2022-11-26T20:16:23.325Z,5.80
2022-11-26T20:18:50.285Z,5.90
2022-11-26T20:21:20.285Z,5.93
2022-11-26T20:23:48.170Z,5.93
2022-11-26T20:26:27.840Z,5.93
2022-11-26T20:28:55.565Z,6.53
2022-11-26T20:31:24.184Z,5.93
2022-11-26T20:33:52.767Z,6.27
2022-11-26T20:36:21.043Z,4.90
2022-11-26T20:38:52.439Z,5.13
2022-11-26T20:41:19.134Z,4.80
2022-11-26T20:43:45.566Z,5.03
2022-11-26T20:46:13.666Z,5.43
2022-11-26T20:48:42.210Z,5.03
2022-11-26T20:51:14.270Z,5.73
2022-11-26T20:53:43.158Z,5.27
2022-11-26T20:56:09.623Z,6.47
2022-11-26T20:58:37.156Z,5.73
2022-11-26T21:01:03.748Z,5.43
2022-11-26T21:03:31.644Z,5.07
2022-11-26T21:06:02.398Z,5.07
2022-11-26T21:08:29.072Z,5.27
2022-11-26T21:10:55.472Z,5.27
2022-11-26T21:13:22.708Z,5.60
2022-11-26T21:15:49.147Z,5.47
2022-11-26T21:18:16.019Z,6.17
2022-11-26T21:20:43.700Z,4.67
2022-11-26T21:23:11.793Z,5.20
2022-11-26T21:25:40.910Z,6.00
2022-11-26T21:28:08.163Z,5.93
2022-11-26T21:30:35.318Z,5.60
2022-11-26T21:33:08.685Z,6.00
2022-11-26T21:35:36.162Z,4.90
2022-11-26T21:38:02.814Z,5.67
2022-11-26T21:40:29.633Z,6.03
2022-11-26T21:42:56.332Z,5.30
2022-11-26T21:45:22.911Z,5.70
2022-11-26T21:47:51.072Z,6.20
2022-11-26T21:50:18.105Z,5.43
2022-11-26T21:52:44.680Z,5.30
2022-11-26T21:55:11.226Z,5.30
2022-11-26T21:57:37.709Z,5.57
2022-11-26T22:00:05.307Z,4.90
2022-11-26T22:02:31.838Z,5.67
2022-11-26T22:04:59.371Z,4.97
2022-11-26T22:07:25.983Z,4.83
2022-11-26T22:09:53.545Z,5.10
2022-11-26T22:12:20.016Z,5.27
2022-11-26T22:14:46.913Z,6.07
2022-11-26T22:17:13.411Z,3.97
2022-11-26T22:19:39.975Z,5.07
2022-11-26T22:22:06.447Z,5.57
2022-11-26T22:24:32.827Z,5.30
2022-11-26T22:26:59.437Z,5.70
2022-11-26T22:29:25.990Z,5.37
2022-11-26T22:31:52.730Z,6.33
2022-11-26T22:34:22.088Z,4.47
2022-11-26T22:36:48.868Z,5.13
2022-11-26T22:39:20.116Z,4.70
2022-11-26T22:41:47.816Z,5.20
2022-11-26T22:44:15.695Z,6.63
2022-11-26T22:46:42.206Z,5.20
2022-11-26T22:49:13.121Z,5.03
2022-11-26T22:51:39.840Z,4.80
2022-11-26T22:54:07.516Z,4.87
2022-11-26T22:56:37.733Z,5.33
2022-11-26T22:59:05.915Z,4.10
2022-11-26T23:01:34.244Z,5.30
2022-11-26T23:04:03.590Z,4.70
2022-11-26T23:06:32.428Z,4.77
2022-11-26T23:09:00.503Z,4.93
2022-11-26T23:11:36.404Z,4.90
2022-11-26T23:14:07.006Z,4.07
2022-11-26T23:16:34.774Z,4.43
2022-11-26T23:19:03.992Z,4.10
2022-11-26T23:21:33.573Z,4.57
2022-11-26T23:24:01.393Z,4.40
2022-11-26T23:26:31.524Z,4.30
2022-11-26T23:29:00.072Z,3.87
2022-11-26T23:31:30.293Z,5.07
2022-11-26T23:33:57.160Z,5.47
2022-11-26T23:36:24.308Z,4.53
2022-11-26T23:38:50.842Z,4.23
2022-11-26T23:41:17.405Z,4.27
2022-11-26T23:43:44.527Z,4.53
2022-11-26T23:46:19.144Z,4.50
2022-11-26T23:48:46.230Z,5.33
2022-11-26T23:51:16.638Z,4.60
2022-11-26T23:53:44.486Z,4.43
2022-11-26T23:56:15.067Z,3.97
2022-11-26T23:58:41.572Z,3.40
